sensor_id;sensor_type;location;lat;lon;timestamp;P1;durP1;ratioP1;P2;durP2;ratioP2
38240;SDS011;24037;49.536;8.500;2023-01-04T00:00:49;14.38;;;8.13;;
38240;SDS011;24037;49.536;8.500;2023-01-04T00:03:15;16.80;;;9.38;;
38240;SDS011;24037;49.536;8.500;2023-01-04T00:05:42;14.00;;;9.45;;
38240;SDS011;24037;49.536;8.500;2023-01-04T00:08:08;13.73;;;10.38;;
38240;SDS011;24037;49.536;8.500;2023-01-04T00:10:34;13.70;;;8.55;;
38240;SDS011;24037;49.536;8.500;2023-01-04T00:13:00;15.63;;;9.32;;
38240;SDS011;24037;49.536;8.500;2023-01-04T00:15:26;13.63;;;8.77;;
38240;SDS011;24037;49.536;8.500;2023-01-04T00:17:52;16.50;;;11.15;;
38240;SDS011;24037;49.536;8.500;2023-01-04T00:20:18;14.35;;;9.45;;
38240;SDS011;24037;49.536;8.500;2023-01-04T00:22:45;18.15;;;10.23;;
38240;SDS011;24037;49.536;8.500;2023-01-04T00:25:11;13.07;;;8.93;;
38240;SDS011;24037;49.536;8.500;2023-01-04T00:27:37;12.85;;;8.80;;
38240;SDS011;24037;49.536;8.500;2023-01-04T00:30:04;17.23;;;10.32;;
38240;SDS011;24037;49.536;8.500;2023-01-04T00:32:30;15.10;;;9.73;;
38240;SDS011;24037;49.536;8.500;2023-01-04T00:34:56;14.65;;;9.98;;
38240;SDS011;24037;49.536;8.500;2023-01-04T00:37:22;17.00;;;10.43;;
38240;SDS011;24037;49.536;8.500;2023-01-04T00:39:48;15.55;;;9.73;;
38240;SDS011;24037;49.536;8.500;2023-01-04T00:42:15;16.55;;;10.00;;
38240;SDS011;24037;49.536;8.500;2023-01-04T00:44:41;18.33;;;10.65;;
38240;SDS011;24037;49.536;8.500;2023-01-04T00:47:07;18.70;;;10.13;;
38240;SDS011;24037;49.536;8.500;2023-01-04T00:49:33;16.27;;;11.25;;
38240;SDS011;24037;49.536;8.500;2023-01-04T00:51:59;18.40;;;12.73;;
38240;SDS011;24037;49.536;8.500;2023-01-04T00:54:25;21.95;;;12.02;;
38240;SDS011;24037;49.536;8.500;2023-01-04T00:56:52;25.02;;;13.68;;
38240;SDS011;24037;49.536;8.500;2023-01-04T00:59:19;21.52;;;14.45;;
38240;SDS011;24037;49.536;8.500;2023-01-04T01:01:46;21.60;;;13.43;;
38240;SDS011;24037;49.536;8.500;2023-01-04T01:04:13;20.77;;;14.32;;
38240;SDS011;24037;49.536;8.500;2023-01-04T01:06:41;27.38;;;16.00;;
38240;SDS011;24037;49.536;8.500;2023-01-04T01:09:07;23.48;;;15.35;;
38240;SDS011;24037;49.536;8.500;2023-01-04T01:11:33;27.90;;;16.77;;
38240;SDS011;24037;49.536;8.500;2023-01-04T01:14:01;30.60;;;18.73;;
38240;SDS011;24037;49.536;8.500;2023-01-04T01:16:27;27.67;;;17.98;;
38240;SDS011;24037;49.536;8.500;2023-01-04T01:18:53;31.23;;;19.40;;
38240;SDS011;24037;49.536;8.500;2023-01-04T01:21:21;28.67;;;17.90;;
38240;SDS011;24037;49.536;8.500;2023-01-04T01:23:49;28.80;;;18.75;;
38240;SDS011;24037;49.536;8.500;2023-01-04T01:26:17;31.98;;;21.63;;
38240;SDS011;24037;49.536;8.500;2023-01-04T01:28:44;37.47;;;20.80;;
38240;SDS011;24037;49.536;8.500;2023-01-04T01:31:12;30.58;;;18.77;;
38240;SDS011;24037;49.536;8.500;2023-01-04T01:33:41;32.70;;;19.60;;
38240;SDS011;24037;49.536;8.500;2023-01-04T01:36:09;35.17;;;20.38;;
38240;SDS011;24037;49.536;8.500;2023-01-04T01:38:37;33.50;;;20.25;;
38240;SDS011;24037;49.536;8.500;2023-01-04T01:41:04;36.25;;;23.00;;
38240;SDS011;24037;49.536;8.500;2023-01-04T01:46:18;37.35;;;22.52;;
38240;SDS011;24037;49.536;8.500;2023-01-04T01:48:51;36.08;;;21.25;;
38240;SDS011;24037;49.536;8.500;2023-01-04T01:53:48;32.55;;;19.58;;
38240;SDS011;24037;49.536;8.500;2023-01-04T01:56:24;32.92;;;20.33;;
38240;SDS011;24037;49.536;8.500;2023-01-04T01:58:54;21.67;;;14.63;;
38240;SDS011;24037;49.536;8.500;2023-01-04T02:01:22;31.23;;;19.45;;
38240;SDS011;24037;49.536;8.500;2023-01-04T02:03:49;30.48;;;19.67;;
38240;SDS011;24037;49.536;8.500;2023-01-04T02:06:26;31.58;;;19.65;;
38240;SDS011;24037;49.536;8.500;2023-01-04T02:08:56;30.23;;;19.15;;
38240;SDS011;24037;49.536;8.500;2023-01-04T02:11:22;28.75;;;18.95;;
38240;SDS011;24037;49.536;8.500;2023-01-04T02:13:48;26.38;;;19.15;;
38240;SDS011;24037;49.536;8.500;2023-01-04T02:22:15;25.55;;;18.05;;
38240;SDS011;24037;49.536;8.500;2023-01-04T02:25:09;24.35;;;16.88;;
38240;SDS011;24037;49.536;8.500;2023-01-04T02:27:58;26.20;;;17.17;;
38240;SDS011;24037;49.536;8.500;2023-01-04T02:31:12;26.63;;;17.58;;
38240;SDS011;24037;49.536;8.500;2023-01-04T02:39:19;23.85;;;16.20;;
38240;SDS011;24037;49.536;8.500;2023-01-04T02:44:42;23.85;;;15.98;;
38240;SDS011;24037;49.536;8.500;2023-01-04T02:50:19;21.50;;;14.15;;
38240;SDS011;24037;49.536;8.500;2023-01-04T02:53:05;20.08;;;13.70;;
38240;SDS011;24037;49.536;8.500;2023-01-04T03:13:20;24.60;;;15.07;;
38240;SDS011;24037;49.536;8.500;2023-01-04T03:16:06;26.02;;;15.63;;
38240;SDS011;24037;49.536;8.500;2023-01-04T03:18:37;23.42;;;16.40;;
38240;SDS011;24037;49.536;8.500;2023-01-04T03:21:08;21.92;;;15.43;;
38240;SDS011;24037;49.536;8.500;2023-01-04T03:23:36;19.80;;;14.05;;
38240;SDS011;24037;49.536;8.500;2023-01-04T03:29:25;22.92;;;14.77;;
38240;SDS011;24037;49.536;8.500;2023-01-04T03:32:14;20.05;;;13.82;;
38240;SDS011;24037;49.536;8.500;2023-01-04T03:35:05;18.30;;;12.88;;
38240;SDS011;24037;49.536;8.500;2023-01-04T03:37:55;19.70;;;12.85;;
38240;SDS011;24037;49.536;8.500;2023-01-04T03:40:58;21.30;;;12.63;;
38240;SDS011;24037;49.536;8.500;2023-01-04T03:43:50;19.50;;;13.05;;
38240;SDS011;24037;49.536;8.500;2023-01-04T03:46:48;21.52;;;12.73;;
38240;SDS011;24037;49.536;8.500;2023-01-04T03:49:44;18.70;;;12.15;;
38240;SDS011;24037;49.536;8.500;2023-01-04T03:52:22;16.13;;;12.27;;
38240;SDS011;24037;49.536;8.500;2023-01-04T03:54:51;20.02;;;12.13;;
38240;SDS011;24037;49.536;8.500;2023-01-04T03:57:20;20.85;;;12.68;;
38240;SDS011;24037;49.536;8.500;2023-01-04T03:59:49;18.52;;;12.57;;
38240;SDS011;24037;49.536;8.500;2023-01-04T04:02:21;16.92;;;11.90;;
38240;SDS011;24037;49.536;8.500;2023-01-04T04:04:49;18.92;;;11.90;;
38240;SDS011;24037;49.536;8.500;2023-01-04T04:07:34;17.50;;;12.20;;
38240;SDS011;24037;49.536;8.500;2023-01-04T04:10:18;18.02;;;11.98;;
38240;SDS011;24037;49.536;8.500;2023-01-04T04:12:45;18.08;;;11.50;;
38240;SDS011;24037;49.536;8.500;2023-01-04T04:15:13;17.98;;;11.82;;
38240;SDS011;24037;49.536;8.500;2023-01-04T04:17:40;16.73;;;10.93;;
38240;SDS011;24037;49.536;8.500;2023-01-04T04:20:06;20.38;;;12.98;;
38240;SDS011;24037;49.536;8.500;2023-01-04T04:22:33;15.98;;;10.93;;
38240;SDS011;24037;49.536;8.500;2023-01-04T04:24:59;17.55;;;10.23;;
38240;SDS011;24037;49.536;8.500;2023-01-04T04:27:25;15.93;;;10.32;;
38240;SDS011;24037;49.536;8.500;2023-01-04T04:29:51;13.80;;;9.70;;
38240;SDS011;24037;49.536;8.500;2023-01-04T04:32:17;13.73;;;9.13;;
38240;SDS011;24037;49.536;8.500;2023-01-04T04:34:43;13.07;;;8.40;;
38240;SDS011;24037;49.536;8.500;2023-01-04T04:37:10;16.52;;;8.43;;
38240;SDS011;24037;49.536;8.500;2023-01-04T04:39:36;14.20;;;8.32;;
38240;SDS011;24037;49.536;8.500;2023-01-04T04:42:03;12.32;;;8.10;;
38240;SDS011;24037;49.536;8.500;2023-01-04T04:44:29;12.68;;;7.75;;
38240;SDS011;24037;49.536;8.500;2023-01-04T04:46:55;11.77;;;7.75;;
38240;SDS011;24037;49.536;8.500;2023-01-04T04:49:21;9.73;;;7.13;;
38240;SDS011;24037;49.536;8.500;2023-01-04T04:51:47;11.82;;;7.32;;
38240;SDS011;24037;49.536;8.500;2023-01-04T04:54:14;11.25;;;7.32;;
38240;SDS011;24037;49.536;8.500;2023-01-04T04:56:42;12.73;;;8.10;;
38240;SDS011;24037;49.536;8.500;2023-01-04T04:59:08;11.70;;;6.85;;
38240;SDS011;24037;49.536;8.500;2023-01-04T05:01:34;12.10;;;7.22;;
38240;SDS011;24037;49.536;8.500;2023-01-04T05:04:01;14.55;;;8.13;;
38240;SDS011;24037;49.536;8.500;2023-01-04T05:06:27;10.77;;;6.93;;
38240;SDS011;24037;49.536;8.500;2023-01-04T05:08:53;13.48;;;8.43;;
38240;SDS011;24037;49.536;8.500;2023-01-04T05:11:19;14.90;;;9.40;;
38240;SDS011;24037;49.536;8.500;2023-01-04T05:14:05;13.65;;;8.02;;
38240;SDS011;24037;49.536;8.500;2023-01-04T05:16:31;15.90;;;9.38;;
38240;SDS011;24037;49.536;8.500;2023-01-04T05:18:58;14.77;;;8.10;;
38240;SDS011;24037;49.536;8.500;2023-01-04T05:21:24;16.60;;;9.30;;
38240;SDS011;24037;49.536;8.500;2023-01-04T05:23:50;18.13;;;9.13;;
38240;SDS011;24037;49.536;8.500;2023-01-04T05:26:16;14.48;;;9.43;;
38240;SDS011;24037;49.536;8.500;2023-01-04T05:28:42;19.40;;;10.43;;
38240;SDS011;24037;49.536;8.500;2023-01-04T05:31:08;17.92;;;10.07;;
38240;SDS011;24037;49.536;8.500;2023-01-04T05:33:34;18.23;;;11.10;;
38240;SDS011;24037;49.536;8.500;2023-01-04T05:36:01;18.20;;;11.68;;
38240;SDS011;24037;49.536;8.500;2023-01-04T05:38:28;21.67;;;12.35;;
38240;SDS011;24037;49.536;8.500;2023-01-04T05:40:55;20.08;;;10.82;;
38240;SDS011;24037;49.536;8.500;2023-01-04T05:43:22;20.42;;;11.88;;
38240;SDS011;24037;49.536;8.500;2023-01-04T05:45:50;19.17;;;11.27;;
38240;SDS011;24037;49.536;8.500;2023-01-04T05:48:18;19.25;;;10.95;;
38240;SDS011;24037;49.536;8.500;2023-01-04T05:50:45;20.58;;;12.50;;
38240;SDS011;24037;49.536;8.500;2023-01-04T05:53:12;18.27;;;10.02;;
38240;SDS011;24037;49.536;8.500;2023-01-04T05:55:39;20.88;;;11.20;;
38240;SDS011;24037;49.536;8.500;2023-01-04T05:58:05;20.52;;;11.50;;
38240;SDS011;24037;49.536;8.500;2023-01-04T06:00:31;18.38;;;10.32;;
38240;SDS011;24037;49.536;8.500;2023-01-04T06:02:57;20.35;;;10.90;;
38240;SDS011;24037;49.536;8.500;2023-01-04T06:05:23;18.05;;;10.70;;
38240;SDS011;24037;49.536;8.500;2023-01-04T06:07:50;18.15;;;10.75;;
38240;SDS011;24037;49.536;8.500;2023-01-04T06:10:17;18.75;;;10.38;;
38240;SDS011;24037;49.536;8.500;2023-01-04T06:12:44;17.50;;;11.50;;
38240;SDS011;24037;49.536;8.500;2023-01-04T06:15:11;17.52;;;10.45;;
38240;SDS011;24037;49.536;8.500;2023-01-04T06:17:38;18.88;;;10.38;;
38240;SDS011;24037;49.536;8.500;2023-01-04T06:20:05;22.05;;;12.20;;
38240;SDS011;24037;49.536;8.500;2023-01-04T06:22:35;20.80;;;11.98;;
38240;SDS011;24037;49.536;8.500;2023-01-04T06:25:02;19.20;;;10.75;;
38240;SDS011;24037;49.536;8.500;2023-01-04T06:27:29;20.55;;;11.38;;
38240;SDS011;24037;49.536;8.500;2023-01-04T06:29:55;18.90;;;10.40;;
38240;SDS011;24037;49.536;8.500;2023-01-04T06:32:21;18.10;;;10.68;;
38240;SDS011;24037;49.536;8.500;2023-01-04T06:34:47;17.58;;;10.73;;
38240;SDS011;24037;49.536;8.500;2023-01-04T06:37:13;19.23;;;10.75;;
38240;SDS011;24037;49.536;8.500;2023-01-04T06:39:39;17.15;;;11.07;;
38240;SDS011;24037;49.536;8.500;2023-01-04T06:42:06;16.65;;;9.80;;
38240;SDS011;24037;49.536;8.500;2023-01-04T06:44:52;17.15;;;10.48;;
38240;SDS011;24037;49.536;8.500;2023-01-04T06:47:18;15.02;;;9.80;;
38240;SDS011;24037;49.536;8.500;2023-01-04T06:49:44;16.73;;;9.32;;
38240;SDS011;24037;49.536;8.500;2023-01-04T06:52:10;15.65;;;9.85;;
38240;SDS011;24037;49.536;8.500;2023-01-04T06:54:36;15.88;;;9.27;;
38240;SDS011;24037;49.536;8.500;2023-01-04T06:57:02;14.38;;;9.18;;
38240;SDS011;24037;49.536;8.500;2023-01-04T06:59:28;14.10;;;9.23;;
38240;SDS011;24037;49.536;8.500;2023-01-04T07:01:55;17.15;;;9.27;;
38240;SDS011;24037;49.536;8.500;2023-01-04T07:04:21;17.35;;;10.25;;
38240;SDS011;24037;49.536;8.500;2023-01-04T07:06:47;14.13;;;8.02;;
38240;SDS011;24037;49.536;8.500;2023-01-04T07:09:13;15.88;;;8.80;;
38240;SDS011;24037;49.536;8.500;2023-01-04T07:11:39;14.77;;;8.60;;
38240;SDS011;24037;49.536;8.500;2023-01-04T07:14:05;13.23;;;8.07;;
38240;SDS011;24037;49.536;8.500;2023-01-04T07:16:31;15.85;;;9.00;;
38240;SDS011;24037;49.536;8.500;2023-01-04T07:18:57;11.95;;;7.53;;
38240;SDS011;24037;49.536;8.500;2023-01-04T07:21:24;13.02;;;7.40;;
38240;SDS011;24037;49.536;8.500;2023-01-04T07:23:51;14.30;;;8.35;;
38240;SDS011;24037;49.536;8.500;2023-01-04T07:26:17;14.05;;;7.88;;
38240;SDS011;24037;49.536;8.500;2023-01-04T07:28:43;12.23;;;6.53;;
38240;SDS011;24037;49.536;8.500;2023-01-04T07:31:28;11.30;;;6.25;;
38240;SDS011;24037;49.536;8.500;2023-01-04T07:33:54;10.48;;;7.00;;
38240;SDS011;24037;49.536;8.500;2023-01-04T07:36:20;13.90;;;6.75;;
38240;SDS011;24037;49.536;8.500;2023-01-04T07:38:46;10.98;;;6.53;;
38240;SDS011;24037;49.536;8.500;2023-01-04T07:41:12;13.25;;;7.78;;
38240;SDS011;24037;49.536;8.500;2023-01-04T07:43:38;15.65;;;7.65;;
38240;SDS011;24037;49.536;8.500;2023-01-04T07:46:05;10.32;;;5.55;;
38240;SDS011;24037;49.536;8.500;2023-01-04T07:48:31;14.52;;;8.63;;
38240;SDS011;24037;49.536;8.500;2023-01-04T07:50:57;20.48;;;11.20;;
38240;SDS011;24037;49.536;8.500;2023-01-04T07:53:23;49.50;;;24.38;;
38240;SDS011;24037;49.536;8.500;2023-01-04T07:55:53;52.80;;;27.20;;
38240;SDS011;24037;49.536;8.500;2023-01-04T07:58:23;91.00;;;45.35;;
38240;SDS011;24037;49.536;8.500;2023-01-04T08:00:50;42.65;;;21.63;;
38240;SDS011;24037;49.536;8.500;2023-01-04T08:03:16;57.08;;;28.65;;
38240;SDS011;24037;49.536;8.500;2023-01-04T08:05:42;93.97;;;48.70;;
38240;SDS011;24037;49.536;8.500;2023-01-04T08:08:09;178.50;;;83.25;;
38240;SDS011;24037;49.536;8.500;2023-01-04T08:10:38;225.73;;;106.15;;
38240;SDS011;24037;49.536;8.500;2023-01-04T08:13:04;121.50;;;57.40;;
38240;SDS011;24037;49.536;8.500;2023-01-04T08:15:30;68.95;;;35.28;;
38240;SDS011;24037;49.536;8.500;2023-01-04T08:17:56;22.08;;;11.13;;
38240;SDS011;24037;49.536;8.500;2023-01-04T08:20:23;92.28;;;42.65;;
38240;SDS011;24037;49.536;8.500;2023-01-04T08:22:49;56.20;;;24.52;;
38240;SDS011;24037;49.536;8.500;2023-01-04T08:25:15;89.25;;;38.90;;
38240;SDS011;24037;49.536;8.500;2023-01-04T08:27:41;131.93;;;57.20;;
38240;SDS011;24037;49.536;8.500;2023-01-04T08:30:08;68.53;;;31.95;;
38240;SDS011;24037;49.536;8.500;2023-01-04T08:32:34;151.00;;;65.53;;
38240;SDS011;24037;49.536;8.500;2023-01-04T08:35:00;87.85;;;39.55;;
38240;SDS011;24037;49.536;8.500;2023-01-04T08:37:26;15.13;;;8.32;;
38240;SDS011;24037;49.536;8.500;2023-01-04T08:39:54;14.65;;;6.65;;
38240;SDS011;24037;49.536;8.500;2023-01-04T08:42:20;8.27;;;4.75;;
38240;SDS011;24037;49.536;8.500;2023-01-04T08:44:46;13.43;;;8.13;;
38240;SDS011;24037;49.536;8.500;2023-01-04T08:47:13;12.98;;;9.65;;
38240;SDS011;24037;49.536;8.500;2023-01-04T08:49:39;25.23;;;18.20;;
38240;SDS011;24037;49.536;8.500;2023-01-04T08:52:05;6.90;;;4.97;;
38240;SDS011;24037;49.536;8.500;2023-01-04T08:54:33;10.07;;;8.30;;
38240;SDS011;24037;49.536;8.500;2023-01-04T08:56:59;6.10;;;4.50;;
38240;SDS011;24037;49.536;8.500;2023-01-04T08:59:25;11.13;;;5.60;;
38240;SDS011;24037;49.536;8.500;2023-01-04T09:01:52;9.23;;;4.35;;
38240;SDS011;24037;49.536;8.500;2023-01-04T09:04:18;5.47;;;3.13;;
38240;SDS011;24037;49.536;8.500;2023-01-04T09:06:44;8.25;;;4.07;;
38240;SDS011;24037;49.536;8.500;2023-01-04T09:09:10;5.45;;;3.90;;
38240;SDS011;24037;49.536;8.500;2023-01-04T09:11:37;6.40;;;4.45;;
38240;SDS011;24037;49.536;8.500;2023-01-04T09:14:03;5.57;;;3.08;;
38240;SDS011;24037;49.536;8.500;2023-01-04T09:16:29;4.82;;;3.03;;
38240;SDS011;24037;49.536;8.500;2023-01-04T09:18:56;4.75;;;3.65;;
38240;SDS011;24037;49.536;8.500;2023-01-04T09:21:22;7.75;;;4.05;;
38240;SDS011;24037;49.536;8.500;2023-01-04T09:23:48;5.80;;;3.13;;
38240;SDS011;24037;49.536;8.500;2023-01-04T09:26:21;5.03;;;3.50;;
38240;SDS011;24037;49.536;8.500;2023-01-04T09:28:49;4.60;;;2.70;;
38240;SDS011;24037;49.536;8.500;2023-01-04T09:31:18;4.38;;;2.03;;
38240;SDS011;24037;49.536;8.500;2023-01-04T09:33:45;6.05;;;2.55;;
38240;SDS011;24037;49.536;8.500;2023-01-04T09:36:12;3.45;;;1.73;;
38240;SDS011;24037;49.536;8.500;2023-01-04T09:38:39;3.00;;;1.65;;
38240;SDS011;24037;49.536;8.500;2023-01-04T09:43:43;3.47;;;1.67;;
38240;SDS011;24037;49.536;8.500;2023-01-04T09:49:23;7.28;;;2.97;;
38240;SDS011;24037;49.536;8.500;2023-01-04T09:52:01;5.07;;;2.05;;
38240;SDS011;24037;49.536;8.500;2023-01-04T09:54:43;2.80;;;1.60;;
38240;SDS011;24037;49.536;8.500;2023-01-04T09:57:16;3.45;;;1.85;;
38240;SDS011;24037;49.536;8.500;2023-01-04T10:00:27;4.22;;;1.40;;
38240;SDS011;24037;49.536;8.500;2023-01-04T10:05:38;3.05;;;1.55;;
38240;SDS011;24037;49.536;8.500;2023-01-04T10:08:08;3.40;;;1.20;;
38240;SDS011;24037;49.536;8.500;2023-01-04T10:10:48;2.97;;;1.15;;
38240;SDS011;24037;49.536;8.500;2023-01-04T10:13:30;4.43;;;1.75;;
38240;SDS011;24037;49.536;8.500;2023-01-04T10:19:14;3.08;;;1.05;;
38240;SDS011;24037;49.536;8.500;2023-01-04T10:22:21;4.85;;;1.38;;
38240;SDS011;24037;49.536;8.500;2023-01-04T10:24:59;3.15;;;1.13;;
38240;SDS011;24037;49.536;8.500;2023-01-04T10:27:41;3.30;;;1.33;;
38240;SDS011;24037;49.536;8.500;2023-01-04T10:33:22;3.47;;;1.30;;
38240;SDS011;24037;49.536;8.500;2023-01-04T10:35:50;2.72;;;0.80;;
38240;SDS011;24037;49.536;8.500;2023-01-04T10:38:19;3.28;;;1.13;;
38240;SDS011;24037;49.536;8.500;2023-01-04T10:41:01;2.15;;;0.90;;
38240;SDS011;24037;49.536;8.500;2023-01-04T10:49:10;4.05;;;1.10;;
38240;SDS011;24037;49.536;8.500;2023-01-04T10:51:51;13.73;;;6.63;;
38240;SDS011;24037;49.536;8.500;2023-01-04T11:00:10;3.30;;;0.98;;
38240;SDS011;24037;49.536;8.500;2023-01-04T11:02:43;3.92;;;1.67;;
38240;SDS011;24037;49.536;8.500;2023-01-04T11:07:52;4.93;;;1.58;;
38240;SDS011;24037;49.536;8.500;2023-01-04T11:10:27;2.08;;;0.80;;
38240;SDS011;24037;49.536;8.500;2023-01-04T11:12:56;1.65;;;0.88;;
38240;SDS011;24037;49.536;8.500;2023-01-04T11:15:22;2.83;;;1.08;;
38240;SDS011;24037;49.536;8.500;2023-01-04T11:17:49;4.03;;;1.60;;
38240;SDS011;24037;49.536;8.500;2023-01-04T11:20:16;4.10;;;1.70;;
38240;SDS011;24037;49.536;8.500;2023-01-04T11:22:44;1.52;;;1.02;;
38240;SDS011;24037;49.536;8.500;2023-01-04T11:25:22;2.55;;;1.27;;
38240;SDS011;24037;49.536;8.500;2023-01-04T11:30:16;3.35;;;1.00;;
38240;SDS011;24037;49.536;8.500;2023-01-04T11:32:54;4.82;;;2.00;;
38240;SDS011;24037;49.536;8.500;2023-01-04T11:35:48;4.30;;;1.75;;
38240;SDS011;24037;49.536;8.500;2023-01-04T11:38:21;2.13;;;1.20;;
38240;SDS011;24037;49.536;8.500;2023-01-04T11:40:59;2.47;;;1.05;;
38240;SDS011;24037;49.536;8.500;2023-01-04T11:43:34;3.08;;;1.13;;
38240;SDS011;24037;49.536;8.500;2023-01-04T11:48:43;2.03;;;0.80;;
38240;SDS011;24037;49.536;8.500;2023-01-04T11:54:03;1.77;;;0.82;;
38240;SDS011;24037;49.536;8.500;2023-01-04T11:56:39;2.90;;;0.95;;
38240;SDS011;24037;49.536;8.500;2023-01-04T11:59:26;2.58;;;0.95;;
38240;SDS011;24037;49.536;8.500;2023-01-04T12:04:43;2.70;;;1.17;;
38240;SDS011;24037;49.536;8.500;2023-01-04T12:07:14;4.65;;;1.65;;
38240;SDS011;24037;49.536;8.500;2023-01-04T12:09:57;2.70;;;1.20;;
38240;SDS011;24037;49.536;8.500;2023-01-04T12:12:26;5.72;;;2.25;;
38240;SDS011;24037;49.536;8.500;2023-01-04T12:14:54;8.83;;;5.67;;
38240;SDS011;24037;49.536;8.500;2023-01-04T12:17:27;6.10;;;2.78;;
38240;SDS011;24037;49.536;8.500;2023-01-04T12:20:04;3.20;;;1.80;;
38240;SDS011;24037;49.536;8.500;2023-01-04T12:22:40;3.20;;;1.40;;
38240;SDS011;24037;49.536;8.500;2023-01-04T12:25:13;1.65;;;0.90;;
38240;SDS011;24037;49.536;8.500;2023-01-04T12:27:50;3.33;;;1.40;;
38240;SDS011;24037;49.536;8.500;2023-01-04T12:41:17;2.22;;;1.13;;
38240;SDS011;24037;49.536;8.500;2023-01-04T12:43:44;2.50;;;1.00;;
38240;SDS011;24037;49.536;8.500;2023-01-04T12:50:02;2.90;;;1.60;;
38240;SDS011;24037;49.536;8.500;2023-01-04T12:57:48;2.08;;;0.95;;
38240;SDS011;24037;49.536;8.500;2023-01-04T13:00:14;6.07;;;2.15;;
38240;SDS011;24037;49.536;8.500;2023-01-04T13:03:33;3.63;;;1.52;;
38240;SDS011;24037;49.536;8.500;2023-01-04T13:05:39;3.97;;;2.65;;
38240;SDS011;24037;49.536;8.500;2023-01-04T13:08:11;4.75;;;1.92;;
38240;SDS011;24037;49.536;8.500;2023-01-04T13:10:41;4.55;;;2.85;;
38240;SDS011;24037;49.536;8.500;2023-01-04T13:16:24;7.35;;;4.07;;
38240;SDS011;24037;49.536;8.500;2023-01-04T13:18:55;3.40;;;1.95;;
38240;SDS011;24037;49.536;8.500;2023-01-04T13:21:37;6.55;;;3.33;;
38240;SDS011;24037;49.536;8.500;2023-01-04T13:24:05;5.85;;;3.38;;
38240;SDS011;24037;49.536;8.500;2023-01-04T13:26:50;3.58;;;2.28;;
38240;SDS011;24037;49.536;8.500;2023-01-04T13:34:37;5.72;;;3.45;;
38240;SDS011;24037;49.536;8.500;2023-01-04T13:39:58;2.47;;;1.50;;
38240;SDS011;24037;49.536;8.500;2023-01-04T13:42:41;5.13;;;3.03;;
38240;SDS011;24037;49.536;8.500;2023-01-04T13:48:04;3.40;;;1.92;;
38240;SDS011;24037;49.536;8.500;2023-01-04T13:50:39;3.10;;;2.30;;
38240;SDS011;24037;49.536;8.500;2023-01-04T13:53:30;2.53;;;0.90;;
38240;SDS011;24037;49.536;8.500;2023-01-04T13:55:58;2.58;;;1.13;;
38240;SDS011;24037;49.536;8.500;2023-01-04T13:58:28;2.15;;;0.98;;
38240;SDS011;24037;49.536;8.500;2023-01-04T14:06:18;1.60;;;1.02;;
38240;SDS011;24037;49.536;8.500;2023-01-04T14:09:20;4.32;;;2.40;;
38240;SDS011;24037;49.536;8.500;2023-01-04T14:17:11;4.63;;;2.97;;
38240;SDS011;24037;49.536;8.500;2023-01-04T14:24:46;19.92;;;13.15;;
38240;SDS011;24037;49.536;8.500;2023-01-04T14:27:30;64.35;;;29.63;;
38240;SDS011;24037;49.536;8.500;2023-01-04T14:32:58;43.92;;;20.45;;
38240;SDS011;24037;49.536;8.500;2023-01-04T14:35:28;63.85;;;32.65;;
38240;SDS011;24037;49.536;8.500;2023-01-04T14:38:00;18.35;;;11.20;;
38240;SDS011;24037;49.536;8.500;2023-01-04T14:40:29;11.82;;;8.18;;
38240;SDS011;24037;49.536;8.500;2023-01-04T14:42:56;8.18;;;5.82;;
38240;SDS011;24037;49.536;8.500;2023-01-04T14:45:23;3.72;;;2.45;;
38240;SDS011;24037;49.536;8.500;2023-01-04T14:47:49;5.70;;;2.95;;
38240;SDS011;24037;49.536;8.500;2023-01-04T14:50:15;5.88;;;2.47;;
38240;SDS011;24037;49.536;8.500;2023-01-04T14:52:49;3.83;;;1.38;;
38240;SDS011;24037;49.536;8.500;2023-01-04T14:55:16;4.40;;;2.33;;
38240;SDS011;24037;49.536;8.500;2023-01-04T14:57:42;3.85;;;1.67;;
38240;SDS011;24037;49.536;8.500;2023-01-04T15:00:13;3.20;;;1.65;;
38240;SDS011;24037;49.536;8.500;2023-01-04T15:02:40;3.72;;;0.95;;
38240;SDS011;24037;49.536;8.500;2023-01-04T15:05:07;2.67;;;1.20;;
38240;SDS011;24037;49.536;8.500;2023-01-04T15:07:34;2.10;;;0.90;;
38240;SDS011;24037;49.536;8.500;2023-01-04T15:10:06;4.20;;;1.70;;
38240;SDS011;24037;49.536;8.500;2023-01-04T15:12:42;4.18;;;1.40;;
38240;SDS011;24037;49.536;8.500;2023-01-04T15:15:10;2.42;;;0.70;;
38240;SDS011;24037;49.536;8.500;2023-01-04T15:17:36;4.50;;;1.40;;
38240;SDS011;24037;49.536;8.500;2023-01-04T15:20:03;3.38;;;1.17;;
38240;SDS011;24037;49.536;8.500;2023-01-04T15:22:30;3.53;;;1.35;;
38240;SDS011;24037;49.536;8.500;2023-01-04T15:24:56;2.50;;;1.35;;
38240;SDS011;24037;49.536;8.500;2023-01-04T15:27:22;3.05;;;1.48;;
38240;SDS011;24037;49.536;8.500;2023-01-04T15:29:48;4.80;;;1.95;;
38240;SDS011;24037;49.536;8.500;2023-01-04T15:32:17;4.32;;;1.55;;
38240;SDS011;24037;49.536;8.500;2023-01-04T15:34:43;3.47;;;1.52;;
38240;SDS011;24037;49.536;8.500;2023-01-04T15:37:09;5.13;;;1.35;;
38240;SDS011;24037;49.536;8.500;2023-01-04T15:39:38;4.10;;;1.48;;
38240;SDS011;24037;49.536;8.500;2023-01-04T15:42:04;4.07;;;1.60;;
38240;SDS011;24037;49.536;8.500;2023-01-04T15:44:49;3.17;;;1.30;;
38240;SDS011;24037;49.536;8.500;2023-01-04T15:47:15;2.08;;;1.15;;
38240;SDS011;24037;49.536;8.500;2023-01-04T15:49:41;5.10;;;1.73;;
38240;SDS011;24037;49.536;8.500;2023-01-04T15:52:08;3.25;;;1.25;;
38240;SDS011;24037;49.536;8.500;2023-01-04T15:54:34;2.55;;;1.38;;
38240;SDS011;24037;49.536;8.500;2023-01-04T15:57:00;1.52;;;0.65;;
38240;SDS011;24037;49.536;8.500;2023-01-04T15:59:26;2.60;;;0.85;;
38240;SDS011;24037;49.536;8.500;2023-01-04T16:01:52;4.55;;;1.25;;
38240;SDS011;24037;49.536;8.500;2023-01-04T16:04:19;1.23;;;0.73;;
38240;SDS011;24037;49.536;8.500;2023-01-04T16:06:45;2.95;;;0.98;;
38240;SDS011;24037;49.536;8.500;2023-01-04T16:09:11;2.70;;;1.10;;
38240;SDS011;24037;49.536;8.500;2023-01-04T16:11:37;2.42;;;1.50;;
38240;SDS011;24037;49.536;8.500;2023-01-04T16:14:23;2.85;;;1.15;;
38240;SDS011;24037;49.536;8.500;2023-01-04T16:16:49;3.63;;;1.10;;
38240;SDS011;24037;49.536;8.500;2023-01-04T16:19:16;1.77;;;1.00;;
38240;SDS011;24037;49.536;8.500;2023-01-04T16:21:42;2.92;;;1.45;;
38240;SDS011;24037;49.536;8.500;2023-01-04T16:24:08;4.88;;;2.10;;
38240;SDS011;24037;49.536;8.500;2023-01-04T16:26:35;1.67;;;0.70;;
38240;SDS011;24037;49.536;8.500;2023-01-04T16:29:01;2.95;;;1.33;;
38240;SDS011;24037;49.536;8.500;2023-01-04T16:31:35;2.95;;;0.98;;
38240;SDS011;24037;49.536;8.500;2023-01-04T16:34:02;4.70;;;1.50;;
38240;SDS011;24037;49.536;8.500;2023-01-04T16:36:29;4.25;;;1.98;;
38240;SDS011;24037;49.536;8.500;2023-01-04T16:38:55;5.20;;;2.00;;
38240;SDS011;24037;49.536;8.500;2023-01-04T16:41:21;5.40;;;1.70;;
38240;SDS011;24037;49.536;8.500;2023-01-04T16:43:53;5.05;;;1.67;;
38240;SDS011;24037;49.536;8.500;2023-01-04T16:46:22;2.63;;;1.35;;
38240;SDS011;24037;49.536;8.500;2023-01-04T16:48:54;2.35;;;1.02;;
38240;SDS011;24037;49.536;8.500;2023-01-04T16:51:22;3.63;;;0.90;;
38240;SDS011;24037;49.536;8.500;2023-01-04T16:53:50;2.75;;;1.20;;
38240;SDS011;24037;49.536;8.500;2023-01-04T16:56:17;4.82;;;1.60;;
38240;SDS011;24037;49.536;8.500;2023-01-04T16:58:45;6.40;;;1.75;;
38240;SDS011;24037;49.536;8.500;2023-01-04T17:01:13;3.58;;;1.98;;
38240;SDS011;24037;49.536;8.500;2023-01-04T17:03:41;6.40;;;2.33;;
38240;SDS011;24037;49.536;8.500;2023-01-04T17:06:10;5.95;;;2.30;;
38240;SDS011;24037;49.536;8.500;2023-01-04T17:08:44;6.68;;;3.25;;